createdAt,value
2022-09-14T00:01:45.532Z,15.87
2022-09-14T00:04:16.655Z,15.84
2022-09-14T00:06:47.480Z,15.82
2022-09-14T00:09:18.533Z,15.85
2022-09-14T00:11:47.825Z,15.85
2022-09-14T00:14:16.874Z,15.84
2022-09-14T00:16:46.296Z,15.83
2022-09-14T00:19:21.466Z,15.81
2022-09-14T00:21:55.129Z,15.77
2022-09-14T00:24:24.851Z,15.74
2022-09-14T00:26:54.199Z,15.69
2022-09-14T00:29:24.168Z,15.62
2022-09-14T00:31:54.352Z,15.45
2022-09-14T00:34:23.004Z,15.37
2022-09-14T00:36:53.751Z,15.30
2022-09-14T00:39:25.024Z,15.25
2022-09-14T00:41:54.721Z,15.20
2022-09-14T00:44:44.922Z,15.18
2022-09-14T00:47:15.321Z,15.06
2022-09-14T00:49:45.390Z,15.10
2022-09-14T00:52:20.127Z,15.06
2022-09-14T00:54:51.405Z,15.06
2022-09-14T00:57:21.607Z,15.05
2022-09-14T00:59:52.505Z,15.06
2022-09-14T01:02:23.471Z,15.07
2022-09-14T01:04:53.259Z,15.12
2022-09-14T01:07:31.777Z,15.15
2022-09-14T01:10:10.303Z,15.18
2022-09-14T01:12:59.645Z,15.16
2022-09-14T01:15:37.990Z,15.15
2022-09-14T01:18:10.545Z,15.12
2022-09-14T01:20:45.320Z,15.06
2022-09-14T01:23:24.116Z,15.06
2022-09-14T01:26:21.557Z,15.08
2022-09-14T01:28:56.183Z,15.04
2022-09-14T01:31:30.143Z,15.00
2022-09-14T01:34:14.570Z,15.00
2022-09-14T01:36:52.101Z,15.01
2022-09-14T01:39:23.312Z,15.02
2022-09-14T01:41:54.414Z,15.00
2022-09-14T01:44:32.230Z,14.99
2022-09-14T01:47:06.624Z,14.96
2022-09-14T01:49:40.652Z,14.96
2022-09-14T01:52:14.002Z,14.98
2022-09-14T01:54:47.633Z,14.96
2022-09-14T01:57:21.496Z,14.96
2022-09-14T01:59:56.553Z,14.96
2022-09-14T02:02:30.422Z,14.97
2022-09-14T02:05:04.618Z,14.99
2022-09-14T02:07:33.776Z,15.00
2022-09-14T02:10:04.226Z,15.01
2022-09-14T02:12:33.068Z,14.97
2022-09-14T02:15:03.223Z,14.99
2022-09-14T02:17:32.526Z,14.97
2022-09-14T02:20:04.451Z,14.95
2022-09-14T02:22:33.406Z,14.93
2022-09-14T02:25:03.278Z,14.98
2022-09-14T02:27:31.805Z,15.02
2022-09-14T02:30:00.772Z,14.99
2022-09-14T02:32:37.421Z,15.03
2022-09-14T02:35:16.724Z,15.05
2022-09-14T02:37:56.490Z,15.06
2022-09-14T02:40:30.381Z,15.07
2022-09-14T02:43:08.210Z,15.06
2022-09-14T02:45:43.917Z,15.10
2022-09-14T02:48:24.467Z,15.15
2022-09-14T02:50:58.893Z,15.16
2022-09-14T02:53:36.309Z,15.18
2022-09-14T02:56:09.478Z,15.17
2022-09-14T02:58:40.590Z,15.15
2022-09-14T03:01:11.867Z,15.17
2022-09-14T03:03:41.840Z,15.19
2022-09-14T03:06:10.413Z,15.22
2022-09-14T03:08:38.949Z,15.27
2022-09-14T03:11:08.561Z,15.29
2022-09-14T03:13:37.552Z,15.25
2022-09-14T03:16:07.366Z,15.27
2022-09-14T03:18:36.652Z,15.29
2022-09-14T03:21:09.402Z,15.32
2022-09-14T03:23:38.859Z,15.34
2022-09-14T03:26:11.807Z,15.37
2022-09-14T03:28:40.454Z,15.35
2022-09-14T03:31:11.838Z,15.36
2022-09-14T03:33:41.525Z,15.35
2022-09-14T03:36:16.763Z,15.40
2022-09-14T03:38:46.248Z,15.42
2022-09-14T03:41:15.754Z,15.42
2022-09-14T03:43:44.875Z,15.41
2022-09-14T03:46:16.056Z,15.47
2022-09-14T03:48:45.108Z,15.46
2022-09-14T03:51:15.588Z,15.45
2022-09-14T03:53:45.117Z,15.45
2022-09-14T03:56:16.814Z,15.39
2022-09-14T03:58:46.227Z,15.35
2022-09-14T04:01:17.545Z,15.33
2022-09-14T04:03:46.710Z,15.30
2022-09-14T04:06:17.950Z,15.29
2022-09-14T04:08:48.074Z,15.22
2022-09-14T04:11:19.270Z,15.16
2022-09-14T04:13:50.174Z,15.11
2022-09-14T04:16:21.187Z,15.07
2022-09-14T04:18:50.405Z,15.10
2022-09-14T04:21:22.293Z,15.10
2022-09-14T04:26:42.766Z,14.92
2022-09-14T04:29:12.566Z,14.87
2022-09-14T04:31:41.265Z,14.86
2022-09-14T04:34:12.675Z,14.88
2022-09-14T04:36:42.922Z,14.89
2022-09-14T04:39:13.924Z,14.89
2022-09-14T04:41:43.645Z,14.91
2022-09-14T04:44:12.586Z,14.92
2022-09-14T04:46:46.602Z,14.92
2022-09-14T04:49:19.099Z,15.03
2022-09-14T04:51:49.282Z,15.15
2022-09-14T04:54:20.133Z,15.19
2022-09-14T04:56:48.656Z,15.24
2022-09-14T04:59:17.249Z,15.32
2022-09-14T05:01:48.965Z,15.37
2022-09-14T05:04:17.999Z,15.45
2022-09-14T05:06:46.578Z,15.52
2022-09-14T05:09:18.606Z,15.60
2022-09-14T05:11:50.026Z,15.64
2022-09-14T05:14:19.067Z,15.71
2022-09-14T05:16:48.195Z,15.75
2022-09-14T05:19:19.658Z,15.79
2022-09-14T05:21:48.802Z,15.77
2022-09-14T05:24:20.657Z,15.79
2022-09-14T05:26:49.423Z,15.82
2022-09-14T05:29:20.241Z,15.83
2022-09-14T05:31:49.284Z,15.85
2022-09-14T05:34:18.107Z,15.88
2022-09-14T05:36:47.986Z,15.90
2022-09-14T05:39:21.016Z,15.95
2022-09-14T05:41:53.554Z,15.96
2022-09-14T05:44:22.133Z,16.01
2022-09-14T05:46:50.766Z,16.07
2022-09-14T05:49:19.458Z,16.10
2022-09-14T05:51:48.218Z,16.17
2022-09-14T05:54:16.859Z,16.24
2022-09-14T05:56:45.522Z,16.26
2022-09-14T05:59:15.681Z,16.28
2022-09-14T06:01:44.347Z,16.25
2022-09-14T06:04:13.336Z,16.24
2022-09-14T06:06:49.306Z,16.25
2022-09-14T06:09:24.687Z,16.30
2022-09-14T06:11:53.353Z,16.38
2022-09-14T06:14:23.384Z,16.41
2022-09-14T06:16:52.047Z,16.47
2022-09-14T06:19:20.689Z,16.50
2022-09-14T06:21:49.238Z,16.47
2022-09-14T06:24:17.829Z,16.39
2022-09-14T06:26:46.579Z,16.37
2022-09-14T06:29:15.285Z,16.40
2022-09-14T06:31:45.526Z,16.42
2022-09-14T06:34:14.048Z,16.41
2022-09-14T06:36:43.496Z,16.37
2022-09-14T06:39:12.417Z,16.33
2022-09-14T06:41:40.978Z,16.28
2022-09-14T06:44:20.658Z,16.29
2022-09-14T06:46:50.830Z,16.31
2022-09-14T06:49:23.190Z,16.35
2022-09-14T06:51:55.049Z,16.37
2022-09-14T06:54:23.919Z,16.40
2022-09-14T06:56:52.442Z,16.44
2022-09-14T06:59:22.209Z,16.48
2022-09-14T07:01:52.033Z,16.53
2022-09-14T07:04:21.782Z,16.52
2022-09-14T07:06:51.192Z,16.51
2022-09-14T07:09:21.055Z,16.54
2022-09-14T07:11:50.121Z,16.57
2022-09-14T07:14:20.386Z,16.63
2022-09-14T07:16:48.980Z,16.66
2022-09-14T07:19:19.110Z,16.69
2022-09-14T07:21:48.580Z,16.74
2022-09-14T07:24:17.518Z,16.76
2022-09-14T07:26:46.539Z,16.76
2022-09-14T07:29:17.350Z,16.82
2022-09-14T07:31:48.340Z,16.89
2022-09-14T07:34:18.817Z,16.93
2022-09-14T07:36:47.660Z,16.98
2022-09-14T07:39:18.198Z,17.08
2022-09-14T07:41:47.067Z,17.12
2022-09-14T07:44:19.151Z,17.16
2022-09-14T07:46:48.048Z,17.20
2022-09-14T07:49:18.851Z,17.22
2022-09-14T07:51:47.537Z,17.23
2022-09-14T07:54:18.478Z,17.29
2022-09-14T07:56:47.609Z,17.30
2022-09-14T07:59:36.172Z,17.34
2022-09-14T08:02:07.902Z,17.36
2022-09-14T08:04:39.499Z,17.35
2022-09-14T08:07:09.413Z,17.34
2022-09-14T08:09:39.151Z,17.39
2022-09-14T08:12:11.052Z,17.41
2022-09-14T08:14:40.900Z,17.48
2022-09-14T08:17:10.604Z,17.51
2022-09-14T08:19:41.485Z,17.57
2022-09-14T08:22:10.053Z,17.59
2022-09-14T08:24:38.865Z,17.59
2022-09-14T08:27:07.437Z,17.63
2022-09-14T08:29:35.893Z,17.68
2022-09-14T08:32:04.809Z,17.74
2022-09-14T08:34:33.276Z,17.78
2022-09-14T08:37:03.192Z,17.79
2022-09-14T08:39:31.767Z,17.78
2022-09-14T08:42:02.298Z,17.78
2022-09-14T08:44:33.089Z,17.80
2022-09-14T08:47:04.215Z,17.81
2022-09-14T08:49:46.570Z,17.82
2022-09-14T08:52:27.297Z,17.82
2022-09-14T08:54:58.344Z,17.83
2022-09-14T08:57:34.620Z,17.81
2022-09-14T09:00:17.381Z,17.83
2022-09-14T09:03:15.685Z,17.82
2022-09-14T09:05:50.359Z,17.77
2022-09-14T09:08:26.387Z,17.74
2022-09-14T09:10:56.495Z,17.72
2022-09-14T09:13:30.576Z,17.74
2022-09-14T09:16:03.433Z,17.77
2022-09-14T09:18:40.665Z,17.81
2022-09-14T09:21:15.094Z,17.85
2022-09-14T09:23:45.457Z,17.89
2022-09-14T09:26:18.735Z,17.87
2022-09-14T09:28:50.074Z,17.89
2022-09-14T09:31:21.748Z,17.92
2022-09-14T09:34:19.334Z,17.94
2022-09-14T09:36:50.184Z,17.86
2022-09-14T09:39:20.637Z,17.86
2022-09-14T09:41:52.806Z,17.87
2022-09-14T09:44:21.404Z,17.90
2022-09-14T09:46:54.455Z,17.95
2022-09-14T09:49:26.995Z,17.93
2022-09-14T09:51:57.414Z,17.89
2022-09-14T09:54:31.205Z,17.89
2022-09-14T09:57:02.664Z,17.94
2022-09-14T09:59:36.137Z,18.04
2022-09-14T10:02:23.528Z,18.08
2022-09-14T10:05:04.176Z,18.20
2022-09-14T10:07:34.895Z,18.27
2022-09-14T10:10:08.119Z,18.43
2022-09-14T10:12:39.175Z,18.51
2022-09-14T10:15:18.258Z,18.58
2022-09-14T10:18:05.718Z,18.59
2022-09-14T10:20:34.249Z,18.60
2022-09-14T10:23:27.323Z,18.70
2022-09-14T10:26:26.092Z,18.78
2022-09-14T10:28:55.287Z,18.84
2022-09-14T10:31:32.785Z,18.91
2022-09-14T10:34:01.673Z,18.90
2022-09-14T10:36:32.170Z,18.89
2022-09-14T10:39:16.375Z,18.88
2022-09-14T10:41:51.301Z,18.97
2022-09-14T10:44:40.284Z,18.97
2022-09-14T10:47:24.583Z,18.96
2022-09-14T10:50:07.250Z,18.96
2022-09-14T10:52:45.338Z,19.01
2022-09-14T10:55:34.553Z,19.12
2022-09-14T10:58:21.224Z,19.21
2022-09-14T11:01:00.318Z,19.34
2022-09-14T11:03:46.009Z,19.45
2022-09-14T11:06:35.943Z,19.54
2022-09-14T11:09:09.172Z,19.55
2022-09-14T11:11:51.971Z,19.54
2022-09-14T11:14:58.590Z,19.52
2022-09-14T11:17:44.451Z,19.51
2022-09-14T11:20:25.869Z,19.51
2022-09-14T11:23:07.352Z,19.54
2022-09-14T11:25:45.269Z,19.58
2022-09-14T11:28:19.819Z,19.56
2022-09-14T11:30:54.134Z,19.51
2022-09-14T11:33:31.270Z,19.50
2022-09-14T11:36:05.516Z,19.48
2022-09-14T11:38:38.369Z,19.46
2022-09-14T11:41:18.109Z,19.42
2022-09-14T11:43:52.070Z,19.38
2022-09-14T11:46:23.558Z,19.41
2022-09-14T11:49:02.523Z,19.37
2022-09-14T11:51:38.009Z,19.35
2022-09-14T11:54:13.525Z,19.38
2022-09-14T11:56:42.304Z,19.44
2022-09-14T11:59:44.656Z,19.47
2022-09-14T12:02:43.251Z,19.49
2022-09-14T12:05:32.743Z,19.51
2022-09-14T12:08:26.032Z,19.51
2022-09-14T12:11:06.193Z,19.52
2022-09-14T12:13:34.743Z,19.50
2022-09-14T12:16:05.599Z,19.48
2022-09-14T12:18:37.462Z,19.46
2022-09-14T12:21:20.003Z,19.44
2022-09-14T12:23:52.576Z,19.38
2022-09-14T12:26:39.837Z,19.33
2022-09-14T12:29:29.091Z,19.20
2022-09-14T12:32:19.836Z,19.18
2022-09-14T12:34:48.524Z,19.15
2022-09-14T12:37:33.438Z,19.14
2022-09-14T12:40:28.061Z,19.14
2022-09-14T12:42:56.725Z,19.07
2022-09-14T12:45:47.187Z,19.06
2022-09-14T12:48:54.396Z,19.06
2022-09-14T12:51:33.315Z,19.05
2022-09-14T12:54:11.945Z,19.14
2022-09-14T12:56:51.299Z,19.14
2022-09-14T12:59:26.011Z,19.28
2022-09-14T13:02:04.767Z,19.49
2022-09-14T13:04:37.799Z,19.71
2022-09-14T13:07:09.401Z,19.83
2022-09-14T13:09:39.618Z,20.01
2022-09-14T13:12:12.759Z,20.16
2022-09-14T13:14:48.690Z,20.27
2022-09-14T13:17:18.149Z,20.37
2022-09-14T13:19:56.082Z,20.40
2022-09-14T13:22:27.771Z,20.39
2022-09-14T13:24:59.891Z,20.42
2022-09-14T13:27:31.108Z,20.48
2022-09-14T13:30:02.868Z,20.57
2022-09-14T13:32:32.793Z,20.58
2022-09-14T13:35:02.879Z,20.58
2022-09-14T13:37:32.232Z,20.59
2022-09-14T13:40:02.446Z,20.50
2022-09-14T13:42:31.350Z,20.41
2022-09-14T13:45:00.235Z,20.40
2022-09-14T13:47:29.205Z,20.45
2022-09-14T13:49:59.046Z,20.49
2022-09-14T13:52:50.122Z,20.54
2022-09-14T13:55:28.955Z,20.60
2022-09-14T13:58:22.350Z,20.54
2022-09-14T14:01:02.708Z,20.51
2022-09-14T14:03:35.110Z,20.52
2022-09-14T14:06:20.680Z,20.50
2022-09-14T14:08:56.650Z,20.52
2022-09-14T14:11:37.658Z,20.52
2022-09-14T14:14:22.518Z,20.49
2022-09-14T14:17:13.675Z,20.47
2022-09-14T14:19:43.939Z,20.47
2022-09-14T14:22:22.761Z,20.47
2022-09-14T14:27:44.956Z,20.40
2022-09-14T14:30:17.089Z,20.43
2022-09-14T14:32:51.383Z,20.56
2022-09-14T14:35:24.214Z,20.60
2022-09-14T14:37:53.103Z,20.64
2022-09-14T14:40:27.582Z,20.68
2022-09-14T14:43:00.016Z,20.66
2022-09-14T14:45:33.185Z,20.67
2022-09-14T14:48:05.547Z,20.69
2022-09-14T14:50:36.236Z,20.66
2022-09-14T14:53:06.041Z,20.65
2022-09-14T14:55:37.797Z,20.61
2022-09-14T14:58:10.081Z,20.52
2022-09-14T15:00:39.800Z,20.46
2022-09-14T15:03:08.682Z,20.40
2022-09-14T15:05:41.614Z,20.34
2022-09-14T15:08:11.322Z,20.26
2022-09-14T15:10:40.885Z,20.24
2022-09-14T15:13:12.028Z,20.22
2022-09-14T15:15:43.223Z,20.21
2022-09-14T15:18:12.345Z,20.21
2022-09-14T15:20:41.404Z,20.23
2022-09-14T15:23:12.454Z,20.17
2022-09-14T15:25:41.172Z,20.26
2022-09-14T15:28:12.795Z,20.24
2022-09-14T15:30:41.868Z,20.23
2022-09-14T15:33:10.506Z,20.21
2022-09-14T15:35:40.885Z,20.23
2022-09-14T15:38:11.115Z,20.23
2022-09-14T15:40:40.123Z,20.26
2022-09-14T15:43:08.925Z,20.28
2022-09-14T15:45:39.404Z,20.31
2022-09-14T15:48:08.134Z,20.29
2022-09-14T15:50:39.076Z,20.31
2022-09-14T15:53:07.775Z,20.32
2022-09-14T15:55:36.405Z,20.32
2022-09-14T15:58:05.188Z,20.35
2022-09-14T16:00:36.901Z,20.34
2022-09-14T16:03:07.680Z,20.34
2022-09-14T16:05:39.396Z,20.31
2022-09-14T16:08:08.587Z,20.31
2022-09-14T16:10:37.293Z,20.33
2022-09-14T16:13:06.713Z,20.32
2022-09-14T16:15:36.313Z,20.32
2022-09-14T16:18:05.474Z,20.28
2022-09-14T16:20:36.744Z,20.26
2022-09-14T16:23:05.362Z,20.19
2022-09-14T16:25:40.978Z,20.17
2022-09-14T16:28:09.615Z,20.15
2022-09-14T16:30:38.165Z,20.10
2022-09-14T16:33:06.847Z,20.06
2022-09-14T16:35:36.831Z,20.01
2022-09-14T16:38:05.812Z,20.00
2022-09-14T16:40:34.418Z,19.92
2022-09-14T16:43:03.140Z,19.87
2022-09-14T16:45:31.964Z,19.86
2022-09-14T16:48:01.247Z,19.80
2022-09-14T16:50:29.930Z,19.71
2022-09-14T16:53:00.070Z,19.65
2022-09-14T16:55:28.781Z,19.62
2022-09-14T16:57:57.462Z,19.58
2022-09-14T17:00:26.167Z,19.52
2022-09-14T17:02:54.818Z,19.46
2022-09-14T17:05:23.460Z,19.41
2022-09-14T17:07:52.147Z,19.37
2022-09-14T17:10:22.110Z,19.35
2022-09-14T17:12:51.038Z,19.37
2022-09-14T17:15:19.706Z,19.30
2022-09-14T17:17:48.348Z,19.27
2022-09-14T17:20:17.367Z,19.21
2022-09-14T17:22:46.072Z,19.21
2022-09-14T17:25:17.012Z,19.19
2022-09-14T17:27:47.674Z,19.18
2022-09-14T17:30:16.394Z,19.15
2022-09-14T17:32:45.203Z,19.16
2022-09-14T17:35:14.333Z,19.15
2022-09-14T17:37:43.414Z,19.09
2022-09-14T17:40:12.576Z,19.03
2022-09-14T17:42:42.877Z,18.98
2022-09-14T17:45:13.225Z,18.91
2022-09-14T17:47:41.933Z,18.88
2022-09-14T17:50:11.008Z,18.83
2022-09-14T17:52:39.788Z,18.79
2022-09-14T17:55:08.938Z,18.79
2022-09-14T17:57:37.782Z,18.80
2022-09-14T18:00:07.485Z,18.78
2022-09-14T18:02:38.416Z,18.70
2022-09-14T18:05:07.537Z,18.69
2022-09-14T18:07:36.204Z,18.69
2022-09-14T18:10:05.360Z,18.67
2022-09-14T18:12:36.912Z,18.67
2022-09-14T18:15:06.143Z,18.68
2022-09-14T18:17:35.438Z,18.67
2022-09-14T18:20:06.753Z,18.68
2022-09-14T18:22:36.217Z,18.68
2022-09-14T18:25:05.596Z,18.70
2022-09-14T18:27:34.593Z,18.73
2022-09-14T18:30:04.207Z,18.74
2022-09-14T18:32:33.131Z,18.74
2022-09-14T18:35:04.469Z,18.75
2022-09-14T18:37:35.610Z,18.71
2022-09-14T18:40:06.100Z,18.67
2022-09-14T18:42:34.974Z,18.64
2022-09-14T18:45:04.052Z,18.63
2022-09-14T18:47:33.964Z,18.61
2022-09-14T18:50:03.059Z,18.60
2022-09-14T18:52:31.848Z,18.57
2022-09-14T18:55:02.749Z,18.53
2022-09-14T18:57:32.020Z,18.49
2022-09-14T19:00:00.658Z,18.51
2022-09-14T19:02:30.007Z,18.52
2022-09-14T19:04:59.282Z,18.53
2022-09-14T19:07:28.212Z,18.55
2022-09-14T19:09:58.717Z,18.54
2022-09-14T19:12:29.102Z,18.52
2022-09-14T19:14:57.872Z,18.51
2022-09-14T19:17:26.642Z,18.51
2022-09-14T19:19:55.482Z,18.48
2022-09-14T19:22:24.414Z,18.50
2022-09-14T19:24:53.313Z,18.48
2022-09-14T19:27:22.556Z,18.42
2022-09-14T19:29:53.646Z,18.39
2022-09-14T19:32:22.466Z,18.35
2022-09-14T19:34:51.169Z,18.29
2022-09-14T19:37:20.033Z,18.28
2022-09-14T19:39:48.859Z,18.28
2022-09-14T19:42:18.337Z,18.27
2022-09-14T19:44:49.014Z,18.24
2022-09-14T19:47:19.174Z,18.21
2022-09-14T19:49:48.391Z,18.21
2022-09-14T19:52:16.965Z,18.19
2022-09-14T19:54:46.005Z,18.17
2022-09-14T19:57:14.782Z,18.16
2022-09-14T19:59:43.863Z,18.17
2022-09-14T20:02:12.834Z,18.18
2022-09-14T20:04:43.302Z,18.21
2022-09-14T20:07:12.001Z,18.21
2022-09-14T20:09:41.000Z,18.22
2022-09-14T20:12:09.982Z,18.19
2022-09-14T20:14:38.773Z,18.20
2022-09-14T20:17:07.840Z,18.19
2022-09-14T20:19:36.863Z,18.17
2022-09-14T20:22:07.002Z,18.18
2022-09-14T20:24:37.395Z,18.17
2022-09-14T20:27:06.173Z,18.18
2022-09-14T20:29:35.718Z,18.15
2022-09-14T20:32:05.518Z,18.16
2022-09-14T20:34:34.565Z,18.16
2022-09-14T20:37:03.279Z,18.17
2022-09-14T20:39:36.176Z,18.16
2022-09-14T20:42:05.147Z,18.16
2022-09-14T20:44:33.949Z,18.18
2022-09-14T20:47:02.586Z,18.17
2022-09-14T20:49:31.151Z,18.15
2022-09-14T20:52:02.769Z,18.16
2022-09-14T20:54:33.132Z,18.16
2022-09-14T20:57:04.428Z,18.15
2022-09-14T20:59:33.970Z,18.16
2022-09-14T21:02:05.539Z,18.14
2022-09-14T21:04:36.118Z,18.13
2022-09-14T21:07:04.837Z,18.11
2022-09-14T21:09:36.593Z,18.07
2022-09-14T21:12:05.670Z,18.10
2022-09-14T21:14:34.250Z,18.12
2022-09-14T21:17:02.787Z,18.10
2022-09-14T21:19:31.441Z,18.08
2022-09-14T21:21:59.989Z,18.07
2022-09-14T21:24:28.595Z,18.08
2022-09-14T21:26:59.029Z,18.10
2022-09-14T21:29:27.713Z,18.09
2022-09-14T21:31:56.329Z,18.12
2022-09-14T21:34:26.335Z,18.13
2022-09-14T21:36:55.622Z,18.12
2022-09-14T21:39:27.364Z,18.15
2022-09-14T21:41:59.662Z,18.08
2022-09-14T21:44:32.112Z,18.07
2022-09-14T21:47:00.979Z,18.07
2022-09-14T21:49:29.962Z,18.08
2022-09-14T21:51:58.813Z,18.05
2022-09-14T21:54:28.138Z,18.00
2022-09-14T21:56:56.792Z,17.90
2022-09-14T21:59:26.840Z,17.80
2022-09-14T22:01:55.942Z,17.77
2022-09-14T22:04:27.049Z,17.78
2022-09-14T22:06:57.882Z,17.77
2022-09-14T22:09:29.045Z,17.78
2022-09-14T22:11:58.995Z,17.80
2022-09-14T22:14:30.664Z,17.83
2022-09-14T22:16:59.356Z,17.83
2022-09-14T22:19:30.218Z,17.82
2022-09-14T22:21:58.815Z,17.81
2022-09-14T22:24:36.452Z,17.79
2022-09-14T22:27:07.730Z,17.78
2022-09-14T22:29:38.335Z,17.76
2022-09-14T22:32:08.674Z,17.88
2022-09-14T22:34:37.427Z,17.92
2022-09-14T22:37:06.638Z,17.95
2022-09-14T22:39:35.540Z,17.94
2022-09-14T22:42:04.134Z,17.96
2022-09-14T22:44:32.893Z,17.95
2022-09-14T22:47:02.835Z,17.97
2022-09-14T22:49:31.591Z,17.96
2022-09-14T22:52:00.477Z,17.94
2022-09-14T22:54:29.112Z,17.93
2022-09-14T22:56:57.723Z,17.93
2022-09-14T22:59:26.449Z,17.94
2022-09-14T23:01:55.035Z,17.92
2022-09-14T23:04:25.066Z,17.91
2022-09-14T23:06:53.761Z,17.90
2022-09-14T23:09:23.633Z,17.90
2022-09-14T23:11:52.531Z,17.89
2022-09-14T23:14:21.329Z,17.90
2022-09-14T23:16:49.917Z,17.89
2022-09-14T23:19:19.739Z,17.88
2022-09-14T23:21:49.894Z,17.87
2022-09-14T23:24:18.285Z,17.89
2022-09-14T23:26:46.981Z,17.90
2022-09-14T23:29:17.854Z,17.89
2022-09-14T23:31:46.841Z,17.91
2022-09-14T23:34:15.602Z,17.90
2022-09-14T23:36:44.263Z,17.89
2022-09-14T23:39:14.169Z,17.89
2022-09-14T23:41:42.848Z,17.86
2022-09-14T23:44:13.123Z,17.89
2022-09-14T23:46:42.038Z,17.90
2022-09-14T23:49:12.352Z,17.90
2022-09-14T23:51:41.543Z,17.88
2022-09-14T23:54:10.852Z,17.88
2022-09-14T23:56:40.804Z,17.86
2022-09-14T23:59:13.004Z,17.84
